createdAt,value
2023-05-05T00:00:42.514Z,249.87
2023-05-05T00:01:42.544Z,248.86
2023-05-05T00:02:42.683Z,247.95
2023-05-05T00:03:42.833Z,249.64
2023-05-05T00:04:42.674Z,248.23
2023-05-05T00:05:42.708Z,249.26
2023-05-05T00:06:42.758Z,249.18
2023-05-05T00:07:42.776Z,249.82
2023-05-05T00:08:42.829Z,249.64
2023-05-05T00:09:42.866Z,248.70
2023-05-05T00:10:42.910Z,249.00
2023-05-05T00:11:42.956Z,249.36
2023-05-05T00:12:43.129Z,248.67
2023-05-05T00:13:43.110Z,248.84
2023-05-05T00:14:43.131Z,249.24
2023-05-05T00:15:43.141Z,247.88
2023-05-05T00:16:43.269Z,249.39
2023-05-05T00:17:43.331Z,249.59
2023-05-05T00:18:43.319Z,249.77
2023-05-05T00:19:43.340Z,248.56
2023-05-05T00:20:43.423Z,248.53
2023-05-05T00:21:43.452Z,248.19
2023-05-05T00:22:43.467Z,249.40
2023-05-05T00:23:43.534Z,249.29
2023-05-05T00:24:43.605Z,248.96
2023-05-05T00:25:43.669Z,249.59
2023-05-05T00:26:43.679Z,249.26
2023-05-05T00:27:43.719Z,248.61
2023-05-05T00:28:43.772Z,249.13
2023-05-05T00:29:43.791Z,249.60
2023-05-05T00:30:43.840Z,248.95
2023-05-05T00:31:43.964Z,248.66
2023-05-05T00:32:43.996Z,249.58
2023-05-05T00:33:43.991Z,248.93
2023-05-05T00:34:44.056Z,249.04
2023-05-05T00:35:44.109Z,248.56
2023-05-05T00:36:44.147Z,248.87
2023-05-05T00:37:44.168Z,249.46
2023-05-05T00:38:44.279Z,248.68
2023-05-05T00:39:44.291Z,248.92
2023-05-05T00:40:44.349Z,248.46
2023-05-05T00:41:44.387Z,249.58
2023-05-05T00:42:44.428Z,248.35
2023-05-05T00:43:44.512Z,247.93
2023-05-05T00:44:44.555Z,249.45
2023-05-05T00:45:44.581Z,248.29
2023-05-05T00:46:44.704Z,248.20
2023-05-05T00:47:44.775Z,249.00
2023-05-05T00:48:44.761Z,248.15
2023-05-05T00:49:44.854Z,248.61
2023-05-05T00:50:44.922Z,249.18
2023-05-05T00:51:44.980Z,248.00
2023-05-05T00:52:44.977Z,249.35
2023-05-05T00:53:45.082Z,248.86
2023-05-05T00:54:45.102Z,249.19
2023-05-05T00:55:45.141Z,248.08
2023-05-05T00:56:45.203Z,247.88
2023-05-05T00:57:45.260Z,248.46
2023-05-05T00:58:45.284Z,248.04
2023-05-05T00:59:45.368Z,248.57
2023-05-05T01:00:45.427Z,249.75
2023-05-05T01:01:45.500Z,248.42
2023-05-05T01:02:45.615Z,248.61
2023-05-05T01:03:45.700Z,248.43
2023-05-05T01:04:45.637Z,248.92
2023-05-05T01:05:45.734Z,248.49
2023-05-05T01:06:45.778Z,248.48
2023-05-05T01:07:45.798Z,249.10
2023-05-05T01:08:45.890Z,248.09
2023-05-05T01:09:45.957Z,248.06
2023-05-05T01:10:46.027Z,248.71
2023-05-05T01:11:46.060Z,248.30
2023-05-05T01:12:46.122Z,249.06
2023-05-05T01:13:46.137Z,249.12
2023-05-05T01:14:46.216Z,248.52
2023-05-05T01:15:46.250Z,248.80
2023-05-05T01:16:46.351Z,249.14
2023-05-05T01:17:46.414Z,248.80
2023-05-05T01:18:46.494Z,247.77
2023-05-05T01:19:46.511Z,248.12
2023-05-05T01:20:46.606Z,248.68
2023-05-05T01:21:46.646Z,248.22
2023-05-05T01:22:46.686Z,247.14
2023-05-05T01:23:46.740Z,247.76
2023-05-05T01:24:46.830Z,248.12
2023-05-05T01:25:46.840Z,248.44
2023-05-05T01:26:46.920Z,248.42
2023-05-05T01:27:47.010Z,247.82
2023-05-05T01:28:47.031Z,247.93
2023-05-05T01:29:47.121Z,248.51
2023-05-05T01:30:47.172Z,248.05
2023-05-05T01:31:47.241Z,249.64
2023-05-05T01:32:47.400Z,248.04
2023-05-05T01:33:47.334Z,248.18
2023-05-05T01:34:47.421Z,248.11
2023-05-05T01:35:47.466Z,248.78
2023-05-05T01:36:47.529Z,248.07
2023-05-05T01:37:47.580Z,248.80
2023-05-05T01:38:47.644Z,248.57
2023-05-05T01:39:47.680Z,248.29
2023-05-05T01:40:47.765Z,248.16
2023-05-05T01:41:47.797Z,248.48
2023-05-05T01:42:47.871Z,248.26
2023-05-05T01:43:47.926Z,248.58
2023-05-05T01:44:48.071Z,248.47
2023-05-05T01:45:48.156Z,248.35
2023-05-05T01:46:48.125Z,248.28
2023-05-05T01:47:48.233Z,247.04
2023-05-05T01:48:48.222Z,248.54
2023-05-05T01:49:48.300Z,250.00
2023-05-05T01:50:48.375Z,247.49
2023-05-05T01:51:48.440Z,247.08
2023-05-05T01:52:48.484Z,247.36
2023-05-05T01:53:48.546Z,247.90
2023-05-05T01:54:48.616Z,247.22
2023-05-05T01:55:48.695Z,247.35
2023-05-05T01:56:48.716Z,249.18
2023-05-05T01:57:48.797Z,247.89
2023-05-05T01:58:48.840Z,247.67
2023-05-05T01:59:48.956Z,247.94
2023-05-05T02:00:48.955Z,247.49
2023-05-05T02:01:49.032Z,248.04
2023-05-05T02:02:49.327Z,248.43
2023-05-05T02:03:49.149Z,248.09
2023-05-05T02:04:49.220Z,247.39
2023-05-05T02:05:49.295Z,247.54
2023-05-05T02:06:49.367Z,247.86
2023-05-05T02:07:49.379Z,248.43
2023-05-05T02:08:49.459Z,248.47
2023-05-05T02:09:49.493Z,247.78
2023-05-05T02:10:49.611Z,247.93
2023-05-05T02:11:49.650Z,247.37
2023-05-05T02:12:49.713Z,248.74
2023-05-05T02:13:49.746Z,247.32
2023-05-05T02:14:49.843Z,247.89
2023-05-05T02:15:49.866Z,247.80
2023-05-05T02:16:49.915Z,248.64
2023-05-05T02:17:50.010Z,247.95
2023-05-05T02:18:50.076Z,247.57
2023-05-05T02:19:50.110Z,248.73
2023-05-05T02:20:50.193Z,247.95
2023-05-05T02:21:50.243Z,247.67
2023-05-05T02:22:50.266Z,248.23
2023-05-05T02:23:50.347Z,248.44
2023-05-05T02:24:50.348Z,248.56
2023-05-05T02:25:50.432Z,247.24
2023-05-05T02:26:50.465Z,248.58
2023-05-05T02:27:50.544Z,247.92
2023-05-05T02:28:50.549Z,248.39
2023-05-05T02:29:50.633Z,248.56
2023-05-05T02:30:50.669Z,248.41
2023-05-05T02:31:50.807Z,247.88
2023-05-05T02:32:50.820Z,248.12
2023-05-05T02:33:50.796Z,248.36
2023-05-05T02:34:50.834Z,248.04
2023-05-05T02:35:50.905Z,248.35
2023-05-05T02:36:50.941Z,247.17
2023-05-05T02:37:51.048Z,248.54
2023-05-05T02:38:51.028Z,248.18
2023-05-05T02:39:51.106Z,247.91
2023-05-05T02:40:51.171Z,248.40
2023-05-05T02:41:51.149Z,249.33
2023-05-05T02:42:51.263Z,248.21
2023-05-05T02:43:51.285Z,247.24
2023-05-05T02:44:51.269Z,248.26
2023-05-05T02:45:51.347Z,246.96
2023-05-05T02:46:51.409Z,248.54
2023-05-05T02:47:51.443Z,248.12
2023-05-05T02:48:51.546Z,247.62
2023-05-05T02:49:51.506Z,248.20
2023-05-05T02:50:51.557Z,247.34
2023-05-05T02:51:51.658Z,247.67
2023-05-05T02:52:51.669Z,248.16
2023-05-05T02:53:51.703Z,248.51
2023-05-05T02:54:51.755Z,247.62
2023-05-05T02:55:51.778Z,248.06
2023-05-05T02:56:51.838Z,247.05
2023-05-05T02:57:51.875Z,248.27
2023-05-05T02:58:51.884Z,249.99
2023-05-05T02:59:51.927Z,247.62
2023-05-05T03:00:51.994Z,247.97
2023-05-05T03:01:52.103Z,248.58
2023-05-05T03:02:52.181Z,248.39
2023-05-05T03:03:52.324Z,247.64
2023-05-05T03:04:52.170Z,248.47
2023-05-05T03:05:52.199Z,248.90
2023-05-05T03:06:52.254Z,248.04
2023-05-05T03:07:52.258Z,248.88
2023-05-05T03:08:52.313Z,248.23
2023-05-05T03:09:52.362Z,248.94
2023-05-05T03:10:52.380Z,246.88
2023-05-05T03:11:52.415Z,248.41
2023-05-05T03:12:52.539Z,247.61
2023-05-05T03:13:52.533Z,248.23
2023-05-05T03:14:52.546Z,247.31
2023-05-05T03:15:52.581Z,247.29
2023-05-05T03:16:52.592Z,247.52
2023-05-05T03:17:52.688Z,248.00
2023-05-05T03:18:52.626Z,248.04
2023-05-05T03:19:52.669Z,248.23
2023-05-05T03:20:52.701Z,248.30
2023-05-05T03:21:52.694Z,248.44
2023-05-05T03:22:52.764Z,247.15
2023-05-05T03:23:52.754Z,247.45
2023-05-05T03:24:52.783Z,247.21
2023-05-05T03:25:52.785Z,247.97
2023-05-05T03:26:52.787Z,247.71
2023-05-05T03:27:52.796Z,248.79
2023-05-05T03:28:52.829Z,248.41
2023-05-05T03:29:52.834Z,247.12
2023-05-05T03:30:52.846Z,247.84
2023-05-05T03:31:52.915Z,247.29
2023-05-05T03:32:52.994Z,247.62
2023-05-05T03:33:52.975Z,247.40
2023-05-05T03:34:53.010Z,248.10
2023-05-05T03:35:53.035Z,248.98
2023-05-05T03:36:53.031Z,248.75
2023-05-05T03:37:53.035Z,248.08
2023-05-05T03:38:53.095Z,248.19
2023-05-05T03:39:53.084Z,248.21
2023-05-05T03:40:53.093Z,247.52
2023-05-05T03:41:53.103Z,247.85
2023-05-05T03:42:53.151Z,247.66
2023-05-05T03:43:53.172Z,246.89
2023-05-05T03:44:53.212Z,248.96
2023-05-05T03:45:53.273Z,247.43
2023-05-05T03:46:53.197Z,248.35
2023-05-05T03:47:53.334Z,248.14
2023-05-05T03:48:53.320Z,247.87
2023-05-05T03:49:53.279Z,248.65
2023-05-05T03:50:53.293Z,246.96
2023-05-05T03:51:53.312Z,248.26
2023-05-05T03:52:53.343Z,246.97
2023-05-05T03:53:53.397Z,247.33
2023-05-05T03:54:53.360Z,247.25
2023-05-05T03:55:53.364Z,248.06
2023-05-05T03:56:53.357Z,248.43
2023-05-05T03:57:53.418Z,248.19
2023-05-05T03:58:53.425Z,247.67
2023-05-05T03:59:53.388Z,248.31
2023-05-05T04:00:53.436Z,249.33
2023-05-05T04:01:53.414Z,249.91
2023-05-05T04:02:53.485Z,246.77
2023-05-05T04:03:53.480Z,246.40
2023-05-05T04:04:53.430Z,242.90
2023-05-05T04:05:53.498Z,241.07
2023-05-05T04:06:53.433Z,239.58
2023-05-05T04:07:53.418Z,236.40
2023-05-05T04:08:53.437Z,235.58
2023-05-05T04:09:53.465Z,233.16
2023-05-05T04:10:53.466Z,231.21
2023-05-05T04:11:53.455Z,229.19
2023-05-05T04:12:53.480Z,226.98
2023-05-05T04:13:53.512Z,223.94
2023-05-05T04:14:53.459Z,223.10
2023-05-05T04:15:53.544Z,220.26
2023-05-05T04:16:53.455Z,218.23
2023-05-05T04:17:53.562Z,215.60
2023-05-05T04:18:53.494Z,213.42
2023-05-05T04:19:53.513Z,212.25
2023-05-05T04:20:53.511Z,210.18
2023-05-05T04:21:53.615Z,208.86
2023-05-05T04:22:53.529Z,207.16
2023-05-05T04:23:53.528Z,204.84
2023-05-05T04:24:53.576Z,204.12
2023-05-05T04:25:53.572Z,203.95
2023-05-05T04:26:53.575Z,202.81
2023-05-05T04:27:53.599Z,199.94
2023-05-05T04:28:53.635Z,200.65
2023-05-05T04:29:53.642Z,198.75
2023-05-05T04:30:53.765Z,197.85
2023-05-05T04:31:53.693Z,199.39
2023-05-05T04:32:53.812Z,199.17
2023-05-05T04:33:53.712Z,198.33
2023-05-05T04:34:53.697Z,199.28
2023-05-05T04:35:53.713Z,199.26
2023-05-05T04:36:53.753Z,199.24
2023-05-05T04:37:53.750Z,199.50
2023-05-05T04:38:53.846Z,198.73
2023-05-05T04:39:53.823Z,200.49
2023-05-05T04:40:53.746Z,201.48
2023-05-05T04:41:53.821Z,202.82
2023-05-05T04:42:53.838Z,202.71
2023-05-05T04:43:53.826Z,205.14
2023-05-05T04:44:53.773Z,204.88
2023-05-05T04:45:53.797Z,206.28
2023-05-05T04:46:53.919Z,206.19
2023-05-05T04:47:53.819Z,206.73
2023-05-05T04:48:53.764Z,208.03
2023-05-05T04:49:53.769Z,207.84
2023-05-05T04:50:53.774Z,208.52
2023-05-05T04:51:53.829Z,208.55
2023-05-05T04:52:53.786Z,208.91
2023-05-05T04:53:53.792Z,209.80
2023-05-05T04:54:53.797Z,211.60
2023-05-05T04:55:53.812Z,211.63
2023-05-05T04:56:53.816Z,212.77
2023-05-05T04:57:53.784Z,211.29
2023-05-05T04:58:53.832Z,211.38
2023-05-05T04:59:53.841Z,213.38
2023-05-05T05:00:53.836Z,213.53
2023-05-05T05:01:53.823Z,213.42
2023-05-05T05:02:53.883Z,213.08
2023-05-05T05:03:53.947Z,215.06
2023-05-05T05:04:53.811Z,214.79
2023-05-05T05:05:53.834Z,215.07
2023-05-05T05:06:53.815Z,215.54
2023-05-05T05:07:53.818Z,216.94
2023-05-05T05:08:53.832Z,216.40
2023-05-05T05:09:53.840Z,217.68
2023-05-05T05:10:53.837Z,216.80
2023-05-05T05:11:53.852Z,218.34
2023-05-05T05:12:53.905Z,218.75
2023-05-05T05:13:53.829Z,219.89
2023-05-05T05:14:53.875Z,219.96
2023-05-05T05:15:53.841Z,218.97
2023-05-05T05:16:53.897Z,218.88
2023-05-05T05:17:53.920Z,220.43
2023-05-05T05:18:53.902Z,221.51
2023-05-05T05:19:53.874Z,220.90
2023-05-05T05:20:53.875Z,221.27
2023-05-05T05:21:53.875Z,220.81
2023-05-05T05:22:54.015Z,221.31
2023-05-05T05:23:53.894Z,222.31
2023-05-05T05:24:53.909Z,222.65
2023-05-05T05:25:53.865Z,221.17
2023-05-05T05:26:53.942Z,222.62
2023-05-05T05:28:08.343Z,221.84
2023-05-05T05:28:54.897Z,221.90
2023-05-05T05:29:53.838Z,222.19
2023-05-05T05:30:53.849Z,222.21
2023-05-05T05:31:53.894Z,223.61
2023-05-05T05:32:53.899Z,223.77
2023-05-05T05:33:53.856Z,225.20
2023-05-05T05:34:53.831Z,222.21
2023-05-05T05:35:53.815Z,219.19
2023-05-05T05:36:53.815Z,217.32
2023-05-05T05:37:53.823Z,217.13
2023-05-05T05:38:53.790Z,211.41
2023-05-05T05:39:53.856Z,208.15
2023-05-05T05:40:53.801Z,205.44
2023-05-05T05:41:53.816Z,205.45
2023-05-05T05:42:53.819Z,204.00
2023-05-05T05:43:53.769Z,203.32
2023-05-05T05:44:54.185Z,205.91
2023-05-05T05:45:53.794Z,208.32
2023-05-05T05:46:53.734Z,209.21
2023-05-05T05:47:53.828Z,211.07
2023-05-05T05:48:53.816Z,213.16
2023-05-05T05:49:53.785Z,216.60
2023-05-05T05:50:53.861Z,219.60
2023-05-05T05:51:53.780Z,221.47
2023-05-05T05:52:53.746Z,222.64
2023-05-05T05:53:53.824Z,225.26
2023-05-05T05:54:53.899Z,225.89
2023-05-05T05:55:53.998Z,228.39
2023-05-05T05:56:54.010Z,228.74
2023-05-05T05:57:54.030Z,229.88
2023-05-05T05:58:54.053Z,232.25
2023-05-05T05:59:54.075Z,233.16
2023-05-05T06:00:54.111Z,235.67
2023-05-05T06:01:54.170Z,237.44
2023-05-05T06:02:54.315Z,237.49
2023-05-05T06:03:54.239Z,240.26
2023-05-05T06:04:54.159Z,240.93
2023-05-05T06:05:54.157Z,242.31
2023-05-05T06:06:54.163Z,243.77
2023-05-05T06:07:54.208Z,246.03
2023-05-05T06:08:54.208Z,247.62
2023-05-05T06:09:54.171Z,248.75
2023-05-05T06:10:54.217Z,249.74
2023-05-05T06:11:54.217Z,249.74
2023-05-05T06:12:54.220Z,249.20
2023-05-05T06:13:54.226Z,249.31
2023-05-05T06:14:54.239Z,247.97
2023-05-05T06:15:54.235Z,248.14
2023-05-05T06:16:54.281Z,248.11
2023-05-05T06:17:54.341Z,246.79
2023-05-05T06:18:54.315Z,245.76
2023-05-05T06:19:54.648Z,244.77
2023-05-05T06:20:54.440Z,247.19
2023-05-05T06:21:54.534Z,246.64
2023-05-05T06:22:54.618Z,245.04
2023-05-05T06:23:54.651Z,243.80
2023-05-05T06:24:54.668Z,244.28
2023-05-05T06:25:54.727Z,244.85
2023-05-05T06:26:54.759Z,244.34
2023-05-05T06:27:54.808Z,245.98
2023-05-05T06:28:54.916Z,245.41
2023-05-05T06:29:54.918Z,243.70
2023-05-05T06:30:54.964Z,243.88
2023-05-05T06:31:55.062Z,243.19
2023-05-05T06:32:55.079Z,243.45
2023-05-05T06:33:55.098Z,245.38
2023-05-05T06:34:55.131Z,242.42
2023-05-05T06:35:55.214Z,239.12
2023-05-05T06:36:55.232Z,236.05
2023-05-05T06:37:55.273Z,234.72
2023-05-05T06:38:55.293Z,232.07
2023-05-05T06:39:55.365Z,228.85
2023-05-05T06:40:55.451Z,224.00
2023-05-05T06:41:55.460Z,219.28
2023-05-05T06:42:55.506Z,215.14
2023-05-05T06:43:55.517Z,212.39
2023-05-05T06:44:55.567Z,212.96
2023-05-05T06:45:55.648Z,213.98
2023-05-05T06:46:55.729Z,210.18
2023-05-05T06:47:55.866Z,210.08
2023-05-05T06:48:55.827Z,209.22
2023-05-05T06:49:55.846Z,209.69
2023-05-05T06:50:55.943Z,205.91
2023-05-05T06:51:55.966Z,203.83
2023-05-05T06:52:56.060Z,202.29
2023-05-05T06:53:56.094Z,201.08
2023-05-05T06:54:56.171Z,201.47
2023-05-05T06:55:56.208Z,198.47
2023-05-05T06:56:58.183Z,199.78
2023-05-05T06:57:56.294Z,201.41
2023-05-05T06:58:56.242Z,205.51
2023-05-05T06:59:56.697Z,199.00
2023-05-05T07:00:56.234Z,196.39
2023-05-05T07:01:56.569Z,194.30
2023-05-05T07:02:56.236Z,192.23
2023-05-05T07:03:56.208Z,189.86
2023-05-05T07:04:56.242Z,186.28
2023-05-05T07:05:56.173Z,189.28
2023-05-05T07:06:56.164Z,186.59
2023-05-05T07:07:56.195Z,185.50
2023-05-05T07:08:56.162Z,184.79
2023-05-05T07:09:56.160Z,186.82
2023-05-05T07:10:56.204Z,187.21
2023-05-05T07:11:56.162Z,187.58
2023-05-05T07:12:56.457Z,184.82
2023-05-05T07:13:56.495Z,183.81
2023-05-05T07:14:56.129Z,182.86
2023-05-05T07:15:56.141Z,182.66
2023-05-05T07:16:56.130Z,186.89
2023-05-05T07:17:56.145Z,190.92
2023-05-05T07:18:56.115Z,192.20
2023-05-05T07:19:56.080Z,191.53
2023-05-05T07:20:56.075Z,193.15
2023-05-05T07:21:56.069Z,193.49
2023-05-05T07:22:56.083Z,194.31
2023-05-05T07:23:56.090Z,194.17
2023-05-05T07:24:56.052Z,196.41
2023-05-05T07:25:56.031Z,195.63
2023-05-05T07:26:56.036Z,196.26
2023-05-05T07:27:56.038Z,196.68
2023-05-05T07:28:56.117Z,196.04
2023-05-05T07:29:56.050Z,191.83
2023-05-05T07:30:56.008Z,193.91
2023-05-05T07:31:56.049Z,192.35
2023-05-05T07:32:55.995Z,176.58
2023-05-05T07:33:56.001Z,156.35
2023-05-05T07:34:55.967Z,153.50
2023-05-05T07:35:55.979Z,148.74
2023-05-05T07:36:55.952Z,138.92
2023-05-05T07:37:55.949Z,139.38
2023-05-05T07:38:55.994Z,144.19
2023-05-05T07:39:55.949Z,144.79
2023-05-05T07:40:55.959Z,147.94
2023-05-05T07:41:55.963Z,149.33
2023-05-05T07:42:55.935Z,149.79
2023-05-05T07:43:55.924Z,150.18
2023-05-05T07:44:56.067Z,151.18
2023-05-05T07:45:55.948Z,152.55
2023-05-05T07:46:55.892Z,155.74
2023-05-05T07:47:55.912Z,155.95
2023-05-05T07:48:55.855Z,156.94
2023-05-05T07:49:55.904Z,159.11
2023-05-05T07:50:55.980Z,161.07
2023-05-05T07:51:56.011Z,161.07
2023-05-05T07:53:56.146Z,161.27
2023-05-05T07:54:56.191Z,161.29
2023-05-05T07:55:56.244Z,161.46
2023-05-05T07:56:56.304Z,161.11
2023-05-05T07:57:56.319Z,159.31
2023-05-05T07:58:56.389Z,159.85
2023-05-05T07:59:56.395Z,158.83
2023-05-05T08:00:56.492Z,157.32
2023-05-05T08:01:56.451Z,158.85
2023-05-05T08:02:56.560Z,157.05
2023-05-05T08:03:56.638Z,154.43
2023-05-05T08:04:56.567Z,153.37
2023-05-05T08:05:56.600Z,152.03
2023-05-05T08:06:56.643Z,152.01
2023-05-05T08:07:56.662Z,150.12
2023-05-05T08:08:56.647Z,149.65
2023-05-05T08:09:56.688Z,149.48
2023-05-05T08:10:56.722Z,146.36
2023-05-05T08:11:56.720Z,145.56
2023-05-05T08:12:56.783Z,145.85
2023-05-05T08:13:56.802Z,143.52
2023-05-05T08:14:56.802Z,143.38
2023-05-05T08:15:56.851Z,142.15
2023-05-05T08:16:56.907Z,142.04
2023-05-05T08:17:56.870Z,141.85
2023-05-05T08:18:56.874Z,140.55
2023-05-05T08:19:56.863Z,139.03
2023-05-05T08:20:57.059Z,137.70
2023-05-05T08:21:57.759Z,135.68
2023-05-05T08:22:56.919Z,135.22
2023-05-05T08:23:57.004Z,134.13
2023-05-05T08:24:56.938Z,134.18
2023-05-05T08:25:56.966Z,132.00
2023-05-05T08:26:56.950Z,130.98
2023-05-05T08:27:56.987Z,128.22
2023-05-05T08:28:56.971Z,98.70
2023-05-05T08:29:57.025Z,56.95
2023-05-05T08:30:57.034Z,40.74
2023-05-05T08:31:57.275Z,29.95
2023-05-05T08:32:57.220Z,34.49
2023-05-05T08:33:57.172Z,37.52
2023-05-05T08:34:57.238Z,26.71
2023-05-05T08:35:57.300Z,23.84
2023-05-05T08:36:57.354Z,22.83
2023-05-05T08:37:59.286Z,25.92
2023-05-05T08:38:57.491Z,24.80
2023-05-05T08:39:57.522Z,28.14
2023-05-05T08:40:57.566Z,38.39
2023-05-05T08:41:57.606Z,41.83
2023-05-05T08:42:57.648Z,36.64
2023-05-05T08:43:57.706Z,36.29
2023-05-05T08:44:59.097Z,39.98
2023-05-05T08:45:57.811Z,43.91
2023-05-05T08:46:57.922Z,37.45
2023-05-05T08:47:57.907Z,26.74
2023-05-05T08:48:57.943Z,25.90
2023-05-05T08:49:57.881Z,27.76
2023-05-05T08:50:59.846Z,25.63
2023-05-05T08:51:57.971Z,26.51
2023-05-05T08:52:58.044Z,25.91
2023-05-05T08:53:58.083Z,28.17
2023-05-05T08:54:58.117Z,24.41
2023-05-05T08:55:58.160Z,24.11
2023-05-05T08:56:58.208Z,24.73
2023-05-05T08:57:58.343Z,32.78
2023-05-05T08:58:58.328Z,31.54
2023-05-05T08:59:58.373Z,33.42
2023-05-05T09:00:58.482Z,36.52
2023-05-05T09:01:58.493Z,39.16
2023-05-05T09:02:58.778Z,35.58
2023-05-05T09:03:58.681Z,29.80
2023-05-05T09:04:58.743Z,25.00
2023-05-05T09:05:58.736Z,25.98
2023-05-05T09:06:58.789Z,26.03
2023-05-05T09:07:58.837Z,28.44
2023-05-05T09:08:59.739Z,29.78
2023-05-05T09:09:58.906Z,25.55
2023-05-05T09:10:58.973Z,26.49
2023-05-05T09:11:59.053Z,28.93
2023-05-05T09:12:59.042Z,27.20
2023-05-05T09:13:59.070Z,24.90
2023-05-05T09:14:59.412Z,26.47
2023-05-05T09:15:59.099Z,25.97
2023-05-05T09:16:59.145Z,25.42
2023-05-05T09:17:59.158Z,25.36
2023-05-05T09:18:59.140Z,25.71
2023-05-05T09:19:59.150Z,26.48
2023-05-05T09:20:59.671Z,27.61
2023-05-05T09:21:59.189Z,25.13
2023-05-05T09:22:59.205Z,25.21
2023-05-05T09:24:04.930Z,25.00
2023-05-05T09:25:00.179Z,18.98
2023-05-05T09:25:59.172Z,16.05
2023-05-05T09:26:59.204Z,13.27
2023-05-05T09:27:59.152Z,14.49
2023-05-05T09:28:59.192Z,12.18
2023-05-05T09:29:59.150Z,21.97
2023-05-05T09:30:59.159Z,27.35
2023-05-05T09:31:59.139Z,31.51
2023-05-05T09:32:59.175Z,32.85
2023-05-05T09:33:59.127Z,33.54
2023-05-05T09:34:59.112Z,28.52
2023-05-05T09:35:59.210Z,27.12
2023-05-05T09:36:59.150Z,29.60
2023-05-05T09:37:59.090Z,37.17
2023-05-05T09:38:59.213Z,49.12
2023-05-05T09:39:59.092Z,58.14
2023-05-05T09:40:59.079Z,67.11
2023-05-05T09:41:59.063Z,70.13
2023-05-05T09:42:59.067Z,65.14
2023-05-05T09:43:59.047Z,60.28
2023-05-05T09:44:59.977Z,59.69
2023-05-05T09:45:59.090Z,52.34
2023-05-05T09:46:59.016Z,50.05
2023-05-05T09:48:00.581Z,42.45
2023-05-05T09:48:59.133Z,37.56
2023-05-05T09:49:59.160Z,31.25
2023-05-05T09:50:59.224Z,25.00
2023-05-05T09:51:59.297Z,25.53
2023-05-05T09:52:59.436Z,24.68
2023-05-05T09:53:59.407Z,25.32
2023-05-05T09:54:59.497Z,25.68
2023-05-05T09:55:59.544Z,25.58
2023-05-05T09:56:59.561Z,26.22
2023-05-05T09:57:59.671Z,29.86
2023-05-05T09:58:59.720Z,29.13
2023-05-05T09:59:59.758Z,30.28
2023-05-05T10:00:59.795Z,33.54
2023-05-05T10:01:59.816Z,36.03
2023-05-05T10:02:59.864Z,36.86
2023-05-05T10:03:59.908Z,35.85
2023-05-05T10:05:01.623Z,32.07
2023-05-05T10:05:59.960Z,34.71
2023-05-05T10:06:59.951Z,33.29
2023-05-05T10:07:59.998Z,29.71
2023-05-05T10:09:00.086Z,26.96
2023-05-05T10:10:00.064Z,28.98
2023-05-05T10:11:00.067Z,27.89
2023-05-05T10:12:00.085Z,25.35
2023-05-05T10:13:00.164Z,25.73
2023-05-05T10:14:00.197Z,28.45
2023-05-05T10:15:00.170Z,27.42
2023-05-05T10:16:00.242Z,28.70
2023-05-05T10:17:00.194Z,28.66
2023-05-05T10:18:07.687Z,28.53
2023-05-05T10:19:01.199Z,27.75
2023-05-05T10:20:00.261Z,25.32
2023-05-05T10:21:00.262Z,23.71
2023-05-05T10:22:00.165Z,22.00
2023-05-05T10:23:00.164Z,21.33
2023-05-05T10:24:00.169Z,26.20
2023-05-05T10:25:00.514Z,30.61
2023-05-05T10:26:00.158Z,36.46
2023-05-05T10:27:00.154Z,35.54
2023-05-05T10:28:00.770Z,39.99
2023-05-05T10:29:00.148Z,48.97
2023-05-05T10:30:00.168Z,56.95
2023-05-05T10:31:00.140Z,62.66
2023-05-05T10:32:00.150Z,71.37
2023-05-05T10:34:00.360Z,57.66
2023-05-05T10:35:00.093Z,59.34
2023-05-05T10:36:00.102Z,53.13
2023-05-05T10:37:00.071Z,47.13
2023-05-05T10:38:00.088Z,40.60
2023-05-05T10:39:00.051Z,34.51
2023-05-05T10:40:00.066Z,31.61
2023-05-05T10:41:00.139Z,27.43
2023-05-05T10:42:00.057Z,24.92
2023-05-05T10:43:00.043Z,25.00
2023-05-05T10:44:01.507Z,25.53
2023-05-05T10:45:00.060Z,27.02
2023-05-05T10:46:00.008Z,25.27
2023-05-05T10:46:59.999Z,25.81
2023-05-05T10:48:00.002Z,25.89
2023-05-05T10:49:00.017Z,26.11
2023-05-05T10:49:59.984Z,25.04
2023-05-05T10:51:00.012Z,25.79
2023-05-05T10:51:59.960Z,28.30
2023-05-05T10:52:59.971Z,27.10
2023-05-05T10:53:59.984Z,27.22
2023-05-05T10:54:59.962Z,27.47
2023-05-05T10:55:59.950Z,25.62
2023-05-05T10:57:00.028Z,25.02
2023-05-05T10:57:59.960Z,29.13
2023-05-05T10:59:00.811Z,28.28
2023-05-05T10:59:59.913Z,27.59
2023-05-05T11:00:59.939Z,29.93
2023-05-05T11:01:59.946Z,31.16
2023-05-05T11:02:59.995Z,33.99
2023-05-05T11:03:59.936Z,41.34
2023-05-05T11:04:59.905Z,37.81
2023-05-05T11:05:59.901Z,35.98
2023-05-05T11:06:59.911Z,35.46
2023-05-05T11:07:59.889Z,36.03
2023-05-05T11:08:59.846Z,40.52
2023-05-05T11:09:59.885Z,46.32
2023-05-05T11:10:59.894Z,52.56
2023-05-05T11:11:59.874Z,54.15
2023-05-05T11:12:59.927Z,57.37
2023-05-05T11:13:59.833Z,60.22
2023-05-05T11:14:59.864Z,60.47
2023-05-05T11:15:59.828Z,61.17
2023-05-05T11:16:59.842Z,60.78
2023-05-05T11:17:59.888Z,61.39
2023-05-05T11:18:59.801Z,60.58
2023-05-05T11:19:59.791Z,60.78
2023-05-05T11:20:59.857Z,59.66
2023-05-05T11:21:59.786Z,60.18
2023-05-05T11:22:59.786Z,58.98
2023-05-05T11:23:59.780Z,60.34
2023-05-05T11:25:00.228Z,60.12
2023-05-05T11:25:59.834Z,58.67
2023-05-05T11:26:59.766Z,57.06
2023-05-05T11:27:59.794Z,56.78
2023-05-05T11:28:59.872Z,56.66
2023-05-05T11:29:59.753Z,55.88
2023-05-05T11:30:59.955Z,54.75
2023-05-05T11:31:59.724Z,56.80
2023-05-05T11:32:59.748Z,54.48
2023-05-05T11:33:59.811Z,54.04
2023-05-05T11:34:59.707Z,52.84
2023-05-05T11:35:59.693Z,50.13
2023-05-05T11:36:59.671Z,49.63
2023-05-05T11:37:59.856Z,51.46
2023-05-05T11:38:59.696Z,47.05
2023-05-05T11:39:59.703Z,46.53
2023-05-05T11:40:59.687Z,45.04
2023-05-05T11:41:59.675Z,43.43
2023-05-05T11:42:59.668Z,42.71
2023-05-05T11:43:59.696Z,44.98
2023-05-05T11:44:59.754Z,43.39
2023-05-05T11:45:59.753Z,43.24
2023-05-05T11:46:59.679Z,48.48
2023-05-05T11:47:59.779Z,49.83
2023-05-05T11:48:59.664Z,55.28
2023-05-05T11:49:59.663Z,59.80
2023-05-05T11:50:59.701Z,64.22
2023-05-05T11:51:59.688Z,70.71
2023-05-05T11:52:59.711Z,80.13
2023-05-05T11:53:59.746Z,92.59
2023-05-05T11:54:59.766Z,102.34
2023-05-05T11:55:59.786Z,113.81
2023-05-05T11:56:59.820Z,121.08
2023-05-05T11:57:59.898Z,130.47
2023-05-05T11:58:59.981Z,132.08
2023-05-05T12:00:00.052Z,139.73
2023-05-05T12:01:00.198Z,150.16
2023-05-05T12:02:00.143Z,154.11
2023-05-05T12:03:00.278Z,163.39
2023-05-05T12:04:00.399Z,168.83
2023-05-05T12:05:00.417Z,173.01
2023-05-05T12:06:00.363Z,178.52
2023-05-05T12:07:00.453Z,179.77
2023-05-05T12:08:00.479Z,185.41
2023-05-05T12:09:00.558Z,190.00
2023-05-05T12:10:00.610Z,194.39
2023-05-05T12:11:00.627Z,197.48
2023-05-05T12:12:00.675Z,199.42
2023-05-05T12:13:00.843Z,202.11
2023-05-05T12:14:00.778Z,202.84
2023-05-05T12:15:00.815Z,204.77
2023-05-05T12:16:00.936Z,208.55
2023-05-05T12:17:00.998Z,212.71
2023-05-05T12:18:03.026Z,215.00
2023-05-05T12:19:01.028Z,216.99
2023-05-05T12:20:01.044Z,220.18
2023-05-05T12:21:01.098Z,222.75
2023-05-05T12:22:01.146Z,223.84
2023-05-05T12:23:01.193Z,225.27
2023-05-05T12:24:01.194Z,226.89
2023-05-05T12:25:01.272Z,227.95
2023-05-05T12:26:01.318Z,230.76
2023-05-05T12:27:01.335Z,231.30
2023-05-05T12:28:01.365Z,232.22
2023-05-05T12:29:01.425Z,234.52
2023-05-05T12:30:01.444Z,235.29
2023-05-05T12:31:01.512Z,235.17
2023-05-05T12:32:01.563Z,231.80
2023-05-05T12:33:01.679Z,231.52
2023-05-05T12:34:01.552Z,235.46
2023-05-05T12:35:01.648Z,236.48
2023-05-05T12:36:01.643Z,238.71
2023-05-05T12:37:01.677Z,241.20